sensor_id;sensor_type;location;lat;lon;timestamp;temperature;humidity
7998;DHT22;4044;49.814;7.828;2023-05-10T00:01:32;13.40;99.90
7998;DHT22;4044;49.814;7.828;2023-05-10T00:03:57;13.50;99.90
7998;DHT22;4044;49.814;7.828;2023-05-10T00:06:23;13.40;99.90
7998;DHT22;4044;49.814;7.828;2023-05-10T00:08:48;13.40;99.90
7998;DHT22;4044;49.814;7.828;2023-05-10T00:11:14;13.30;99.90
7998;DHT22;4044;49.814;7.828;2023-05-10T00:13:40;13.40;99.90
7998;DHT22;4044;49.814;7.828;2023-05-10T00:16:05;13.40;99.90
7998;DHT22;4044;49.814;7.828;2023-05-10T00:18:31;13.40;99.90
7998;DHT22;4044;49.814;7.828;2023-05-10T00:20:56;13.30;99.90
7998;DHT22;4044;49.814;7.828;2023-05-10T00:23:22;13.30;99.90
7998;DHT22;4044;49.814;7.828;2023-05-10T00:25:47;13.40;99.90
7998;DHT22;4044;49.814;7.828;2023-05-10T00:28:13;13.40;99.90
7998;DHT22;4044;49.814;7.828;2023-05-10T00:30:38;13.50;99.90
7998;DHT22;4044;49.814;7.828;2023-05-10T00:33:04;13.40;99.90
7998;DHT22;4044;49.814;7.828;2023-05-10T00:35:29;13.50;99.90
7998;DHT22;4044;49.814;7.828;2023-05-10T00:37:55;13.50;99.90
7998;DHT22;4044;49.814;7.828;2023-05-10T00:40:21;13.50;99.90
7998;DHT22;4044;49.814;7.828;2023-05-10T00:42:46;13.60;99.90
7998;DHT22;4044;49.814;7.828;2023-05-10T00:45:12;13.60;99.90
7998;DHT22;4044;49.814;7.828;2023-05-10T00:47:38;13.50;99.90
7998;DHT22;4044;49.814;7.828;2023-05-10T00:50:04;13.40;99.90
7998;DHT22;4044;49.814;7.828;2023-05-10T00:52:30;13.40;99.90
7998;DHT22;4044;49.814;7.828;2023-05-10T00:54:56;13.40;99.90
7998;DHT22;4044;49.814;7.828;2023-05-10T00:57:22;13.40;99.90
7998;DHT22;4044;49.814;7.828;2023-05-10T00:59:48;13.30;99.90
7998;DHT22;4044;49.814;7.828;2023-05-10T01:02:14;13.30;99.90
7998;DHT22;4044;49.814;7.828;2023-05-10T01:04:39;13.20;99.90
7998;DHT22;4044;49.814;7.828;2023-05-10T01:07:06;13.20;99.90
7998;DHT22;4044;49.814;7.828;2023-05-10T01:09:31;13.10;99.90
7998;DHT22;4044;49.814;7.828;2023-05-10T01:11:58;13.10;99.90
7998;DHT22;4044;49.814;7.828;2023-05-10T01:14:25;13.00;99.90
7998;DHT22;4044;49.814;7.828;2023-05-10T01:16:52;13.10;99.90
7998;DHT22;4044;49.814;7.828;2023-05-10T01:27:25;12.90;99.90
7998;DHT22;4044;49.814;7.828;2023-05-10T01:38:11;12.70;99.90
7998;DHT22;4044;49.814;7.828;2023-05-10T01:43:22;12.60;99.90
7998;DHT22;4044;49.814;7.828;2023-05-10T01:46:03;12.70;99.90
7998;DHT22;4044;49.814;7.828;2023-05-10T01:48:40;12.80;99.90
7998;DHT22;4044;49.814;7.828;2023-05-10T01:51:09;12.80;99.90
7998;DHT22;4044;49.814;7.828;2023-05-10T01:53:37;12.80;99.90
7998;DHT22;4044;49.814;7.828;2023-05-10T01:56:04;12.80;99.90
7998;DHT22;4044;49.814;7.828;2023-05-10T01:58:32;12.90;99.90
7998;DHT22;4044;49.814;7.828;2023-05-10T02:01:01;12.90;99.90
7998;DHT22;4044;49.814;7.828;2023-05-10T02:03:29;12.90;99.90
7998;DHT22;4044;49.814;7.828;2023-05-10T02:05:57;12.80;99.90
7998;DHT22;4044;49.814;7.828;2023-05-10T02:08:23;12.80;99.90
7998;DHT22;4044;49.814;7.828;2023-05-10T02:10:51;12.70;99.90
7998;DHT22;4044;49.814;7.828;2023-05-10T02:13:18;12.80;99.90
7998;DHT22;4044;49.814;7.828;2023-05-10T02:15:44;12.80;99.90
7998;DHT22;4044;49.814;7.828;2023-05-10T02:18:13;12.80;99.90
7998;DHT22;4044;49.814;7.828;2023-05-10T02:20:39;12.80;99.90
7998;DHT22;4044;49.814;7.828;2023-05-10T02:23:06;12.80;99.90
7998;DHT22;4044;49.814;7.828;2023-05-10T02:25:32;12.70;99.90
7998;DHT22;4044;49.814;7.828;2023-05-10T02:28:01;12.70;99.90
7998;DHT22;4044;49.814;7.828;2023-05-10T02:30:28;12.70;99.90
7998;DHT22;4044;49.814;7.828;2023-05-10T02:32:54;12.80;99.90
7998;DHT22;4044;49.814;7.828;2023-05-10T02:35:22;12.80;99.90
7998;DHT22;4044;49.814;7.828;2023-05-10T02:37:48;12.90;99.90
7998;DHT22;4044;49.814;7.828;2023-05-10T02:40:16;12.90;99.90
7998;DHT22;4044;49.814;7.828;2023-05-10T02:42:44;12.90;99.90
7998;DHT22;4044;49.814;7.828;2023-05-10T02:45:12;13.00;99.90
7998;DHT22;4044;49.814;7.828;2023-05-10T02:47:39;13.10;99.90
7998;DHT22;4044;49.814;7.828;2023-05-10T02:50:05;13.00;99.90
7998;DHT22;4044;49.814;7.828;2023-05-10T02:52:42;13.00;99.90
7998;DHT22;4044;49.814;7.828;2023-05-10T02:55:12;13.10;99.90
7998;DHT22;4044;49.814;7.828;2023-05-10T02:57:46;13.20;99.90
7998;DHT22;4044;49.814;7.828;2023-05-10T03:00:13;13.20;99.90
7998;DHT22;4044;49.814;7.828;2023-05-10T03:02:39;13.30;99.90
7998;DHT22;4044;49.814;7.828;2023-05-10T03:05:05;13.30;99.90
7998;DHT22;4044;49.814;7.828;2023-05-10T03:07:30;13.20;99.90
7998;DHT22;4044;49.814;7.828;2023-05-10T03:09:56;13.20;99.90
7998;DHT22;4044;49.814;7.828;2023-05-10T03:12:49;13.20;99.90
7998;DHT22;4044;49.814;7.828;2023-05-10T03:18:37;13.00;99.90
7998;DHT22;4044;49.814;7.828;2023-05-10T03:21:10;12.90;99.90
7998;DHT22;4044;49.814;7.828;2023-05-10T03:23:47;12.80;99.90
7998;DHT22;4044;49.814;7.828;2023-05-10T03:26:18;12.80;99.90
7998;DHT22;4044;49.814;7.828;2023-05-10T03:28:47;13.00;99.90
7998;DHT22;4044;49.814;7.828;2023-05-10T03:31:13;12.90;99.90
7998;DHT22;4044;49.814;7.828;2023-05-10T03:33:49;12.90;99.90
7998;DHT22;4044;49.814;7.828;2023-05-10T03:36:14;13.00;99.90
7998;DHT22;4044;49.814;7.828;2023-05-10T03:38:40;13.00;99.90
7998;DHT22;4044;49.814;7.828;2023-05-10T03:41:05;13.00;99.90
7998;DHT22;4044;49.814;7.828;2023-05-10T03:43:31;12.90;99.90
7998;DHT22;4044;49.814;7.828;2023-05-10T03:45:56;12.80;99.90
7998;DHT22;4044;49.814;7.828;2023-05-10T03:48:22;12.80;99.90
7998;DHT22;4044;49.814;7.828;2023-05-10T03:50:47;12.80;99.90
7998;DHT22;4044;49.814;7.828;2023-05-10T03:53:14;12.80;99.90
7998;DHT22;4044;49.814;7.828;2023-05-10T03:55:40;12.80;99.90
7998;DHT22;4044;49.814;7.828;2023-05-10T03:58:06;12.80;99.90
7998;DHT22;4044;49.814;7.828;2023-05-10T04:00:31;12.80;99.90
7998;DHT22;4044;49.814;7.828;2023-05-10T04:02:57;12.70;99.90
7998;DHT22;4044;49.814;7.828;2023-05-10T04:05:23;12.70;99.90
7998;DHT22;4044;49.814;7.828;2023-05-10T04:07:49;12.70;99.90
7998;DHT22;4044;49.814;7.828;2023-05-10T04:10:15;12.80;99.90
7998;DHT22;4044;49.814;7.828;2023-05-10T04:12:41;12.80;99.90
7998;DHT22;4044;49.814;7.828;2023-05-10T04:15:07;12.80;99.90
7998;DHT22;4044;49.814;7.828;2023-05-10T04:17:33;12.90;99.90
7998;DHT22;4044;49.814;7.828;2023-05-10T04:19:59;12.90;99.90
7998;DHT22;4044;49.814;7.828;2023-05-10T04:22:24;13.00;99.90
7998;DHT22;4044;49.814;7.828;2023-05-10T04:24:50;13.10;99.90
7998;DHT22;4044;49.814;7.828;2023-05-10T04:27:15;13.10;99.90
7998;DHT22;4044;49.814;7.828;2023-05-10T04:29:41;13.10;99.90
7998;DHT22;4044;49.814;7.828;2023-05-10T04:32:06;13.10;99.90
7998;DHT22;4044;49.814;7.828;2023-05-10T04:34:32;13.00;99.90
7998;DHT22;4044;49.814;7.828;2023-05-10T04:36:59;13.00;99.90
7998;DHT22;4044;49.814;7.828;2023-05-10T04:39:25;12.90;99.90
7998;DHT22;4044;49.814;7.828;2023-05-10T04:41:50;12.80;99.90
7998;DHT22;4044;49.814;7.828;2023-05-10T04:44:16;12.80;99.90
7998;DHT22;4044;49.814;7.828;2023-05-10T04:46:41;12.70;99.90
7998;DHT22;4044;49.814;7.828;2023-05-10T04:49:07;12.70;99.90
7998;DHT22;4044;49.814;7.828;2023-05-10T04:51:32;12.70;99.90
7998;DHT22;4044;49.814;7.828;2023-05-10T04:53:58;12.70;99.90
7998;DHT22;4044;49.814;7.828;2023-05-10T04:56:23;12.60;99.90
7998;DHT22;4044;49.814;7.828;2023-05-10T04:58:49;12.60;99.90
7998;DHT22;4044;49.814;7.828;2023-05-10T05:01:14;12.70;99.90
7998;DHT22;4044;49.814;7.828;2023-05-10T05:03:40;12.70;99.90
7998;DHT22;4044;49.814;7.828;2023-05-10T05:06:06;12.80;99.90
7998;DHT22;4044;49.814;7.828;2023-05-10T05:08:31;12.80;99.90
7998;DHT22;4044;49.814;7.828;2023-05-10T05:10:57;12.90;99.90
7998;DHT22;4044;49.814;7.828;2023-05-10T05:13:22;13.00;99.90
7998;DHT22;4044;49.814;7.828;2023-05-10T05:15:48;13.20;99.90
7998;DHT22;4044;49.814;7.828;2023-05-10T05:18:13;13.30;99.90
7998;DHT22;4044;49.814;7.828;2023-05-10T05:20:39;13.40;99.90
7998;DHT22;4044;49.814;7.828;2023-05-10T05:23:05;13.50;99.90
7998;DHT22;4044;49.814;7.828;2023-05-10T05:25:30;13.50;99.90
7998;DHT22;4044;49.814;7.828;2023-05-10T05:27:56;13.50;99.90
7998;DHT22;4044;49.814;7.828;2023-05-10T05:30:21;13.60;99.90
7998;DHT22;4044;49.814;7.828;2023-05-10T05:32:47;13.60;99.90
7998;DHT22;4044;49.814;7.828;2023-05-10T05:35:13;13.60;99.90
7998;DHT22;4044;49.814;7.828;2023-05-10T05:37:38;13.80;99.90
7998;DHT22;4044;49.814;7.828;2023-05-10T05:40:05;14.00;99.90
7998;DHT22;4044;49.814;7.828;2023-05-10T05:42:31;14.30;99.90
7998;DHT22;4044;49.814;7.828;2023-05-10T05:44:57;14.50;99.90
7998;DHT22;4044;49.814;7.828;2023-05-10T05:47:22;14.70;99.90
7998;DHT22;4044;49.814;7.828;2023-05-10T05:49:48;15.00;99.90
7998;DHT22;4044;49.814;7.828;2023-05-10T05:52:13;15.10;99.90
7998;DHT22;4044;49.814;7.828;2023-05-10T05:54:39;14.90;99.90
7998;DHT22;4044;49.814;7.828;2023-05-10T05:57:05;14.80;99.90
7998;DHT22;4044;49.814;7.828;2023-05-10T05:59:31;14.90;99.90
7998;DHT22;4044;49.814;7.828;2023-05-10T06:01:56;15.00;99.90
7998;DHT22;4044;49.814;7.828;2023-05-10T06:04:22;15.10;99.90
7998;DHT22;4044;49.814;7.828;2023-05-10T06:06:47;15.30;99.90
7998;DHT22;4044;49.814;7.828;2023-05-10T06:09:13;15.30;99.90
7998;DHT22;4044;49.814;7.828;2023-05-10T06:11:38;15.40;99.90
7998;DHT22;4044;49.814;7.828;2023-05-10T06:14:05;15.40;99.90
7998;DHT22;4044;49.814;7.828;2023-05-10T06:16:32;15.20;99.90
7998;DHT22;4044;49.814;7.828;2023-05-10T06:18:58;15.20;99.90
7998;DHT22;4044;49.814;7.828;2023-05-10T06:21:23;15.10;99.90
7998;DHT22;4044;49.814;7.828;2023-05-10T06:23:49;14.90;99.90
7998;DHT22;4044;49.814;7.828;2023-05-10T06:26:14;14.90;99.90
7998;DHT22;4044;49.814;7.828;2023-05-10T06:28:40;14.70;99.90
7998;DHT22;4044;49.814;7.828;2023-05-10T06:31:06;14.60;99.90
7998;DHT22;4044;49.814;7.828;2023-05-10T06:33:32;14.60;99.90
7998;DHT22;4044;49.814;7.828;2023-05-10T06:35:58;14.60;99.90
7998;DHT22;4044;49.814;7.828;2023-05-10T06:38:23;14.60;99.90
7998;DHT22;4044;49.814;7.828;2023-05-10T06:40:49;14.50;99.90
7998;DHT22;4044;49.814;7.828;2023-05-10T06:43:15;14.60;99.90
7998;DHT22;4044;49.814;7.828;2023-05-10T06:45:40;14.80;99.90
7998;DHT22;4044;49.814;7.828;2023-05-10T06:48:06;15.00;99.90
7998;DHT22;4044;49.814;7.828;2023-05-10T06:50:32;15.20;99.90
7998;DHT22;4044;49.814;7.828;2023-05-10T06:52:58;15.10;99.90
7998;DHT22;4044;49.814;7.828;2023-05-10T06:55:24;15.10;99.90
7998;DHT22;4044;49.814;7.828;2023-05-10T06:57:50;15.20;99.90
7998;DHT22;4044;49.814;7.828;2023-05-10T07:00:17;15.30;99.90
7998;DHT22;4044;49.814;7.828;2023-05-10T07:02:43;15.40;99.90
7998;DHT22;4044;49.814;7.828;2023-05-10T07:05:08;15.50;99.90
7998;DHT22;4044;49.814;7.828;2023-05-10T07:07:34;15.50;99.90
7998;DHT22;4044;49.814;7.828;2023-05-10T07:09:59;15.50;99.90
7998;DHT22;4044;49.814;7.828;2023-05-10T07:12:25;15.60;99.90
7998;DHT22;4044;49.814;7.828;2023-05-10T07:14:51;15.70;99.90
7998;DHT22;4044;49.814;7.828;2023-05-10T07:17:17;15.60;99.90
7998;DHT22;4044;49.814;7.828;2023-05-10T07:19:42;15.60;99.90
7998;DHT22;4044;49.814;7.828;2023-05-10T07:22:08;15.60;99.90
7998;DHT22;4044;49.814;7.828;2023-05-10T07:24:34;15.90;99.90
7998;DHT22;4044;49.814;7.828;2023-05-10T07:26:59;16.10;99.90
7998;DHT22;4044;49.814;7.828;2023-05-10T07:29:25;16.30;99.90
7998;DHT22;4044;49.814;7.828;2023-05-10T07:31:51;16.40;99.90
7998;DHT22;4044;49.814;7.828;2023-05-10T07:34:16;16.60;99.90
7998;DHT22;4044;49.814;7.828;2023-05-10T07:36:42;16.60;99.90
7998;DHT22;4044;49.814;7.828;2023-05-10T07:39:08;16.60;99.90
7998;DHT22;4044;49.814;7.828;2023-05-10T07:41:33;16.60;99.90
7998;DHT22;4044;49.814;7.828;2023-05-10T07:43:59;16.50;99.90
7998;DHT22;4044;49.814;7.828;2023-05-10T07:46:24;16.40;99.90
7998;DHT22;4044;49.814;7.828;2023-05-10T07:48:50;16.40;99.90
7998;DHT22;4044;49.814;7.828;2023-05-10T07:51:15;16.30;99.90
7998;DHT22;4044;49.814;7.828;2023-05-10T07:53:41;16.30;99.90
7998;DHT22;4044;49.814;7.828;2023-05-10T07:56:21;16.40;99.90
7998;DHT22;4044;49.814;7.828;2023-05-10T07:58:47;16.40;99.90
7998;DHT22;4044;49.814;7.828;2023-05-10T08:01:13;16.50;99.90
7998;DHT22;4044;49.814;7.828;2023-05-10T08:03:38;16.50;99.90
7998;DHT22;4044;49.814;7.828;2023-05-10T08:06:04;16.50;99.90
7998;DHT22;4044;49.814;7.828;2023-05-10T08:08:30;16.70;99.90
7998;DHT22;4044;49.814;7.828;2023-05-10T08:10:55;16.70;99.90
7998;DHT22;4044;49.814;7.828;2023-05-10T08:13:21;16.60;99.90
7998;DHT22;4044;49.814;7.828;2023-05-10T08:15:46;16.50;99.90
7998;DHT22;4044;49.814;7.828;2023-05-10T08:18:12;16.40;99.90
7998;DHT22;4044;49.814;7.828;2023-05-10T08:20:38;16.40;99.90
7998;DHT22;4044;49.814;7.828;2023-05-10T08:23:03;16.50;99.90
7998;DHT22;4044;49.814;7.828;2023-05-10T08:25:29;16.60;99.90
7998;DHT22;4044;49.814;7.828;2023-05-10T08:27:54;16.60;99.90
7998;DHT22;4044;49.814;7.828;2023-05-10T08:30:20;16.60;99.90
7998;DHT22;4044;49.814;7.828;2023-05-10T08:32:45;16.70;99.90
7998;DHT22;4044;49.814;7.828;2023-05-10T08:35:11;16.80;99.90
7998;DHT22;4044;49.814;7.828;2023-05-10T08:37:36;16.80;99.90
7998;DHT22;4044;49.814;7.828;2023-05-10T08:40:02;17.00;99.90
7998;DHT22;4044;49.814;7.828;2023-05-10T08:42:30;17.20;99.90
7998;DHT22;4044;49.814;7.828;2023-05-10T08:44:57;17.40;99.90
7998;DHT22;4044;49.814;7.828;2023-05-10T08:47:23;17.30;99.90
7998;DHT22;4044;49.814;7.828;2023-05-10T08:49:50;17.30;99.90
7998;DHT22;4044;49.814;7.828;2023-05-10T08:52:17;17.30;99.90
7998;DHT22;4044;49.814;7.828;2023-05-10T08:54:43;17.60;99.90
7998;DHT22;4044;49.814;7.828;2023-05-10T08:57:10;17.70;99.90
7998;DHT22;4044;49.814;7.828;2023-05-10T08:59:36;17.70;99.90
7998;DHT22;4044;49.814;7.828;2023-05-10T09:02:04;17.40;99.90
7998;DHT22;4044;49.814;7.828;2023-05-10T09:04:30;17.00;99.90
7998;DHT22;4044;49.814;7.828;2023-05-10T09:06:56;16.50;99.90
7998;DHT22;4044;49.814;7.828;2023-05-10T09:09:23;16.30;99.90
7998;DHT22;4044;49.814;7.828;2023-05-10T09:11:51;15.90;99.90
7998;DHT22;4044;49.814;7.828;2023-05-10T09:14:18;15.90;99.90
7998;DHT22;4044;49.814;7.828;2023-05-10T09:16:45;15.90;99.90
7998;DHT22;4044;49.814;7.828;2023-05-10T09:19:10;16.00;99.90
7998;DHT22;4044;49.814;7.828;2023-05-10T09:21:36;16.10;99.90
7998;DHT22;4044;49.814;7.828;2023-05-10T09:24:05;16.30;99.90
7998;DHT22;4044;49.814;7.828;2023-05-10T09:26:31;16.60;99.90
7998;DHT22;4044;49.814;7.828;2023-05-10T09:28:58;16.80;99.90
7998;DHT22;4044;49.814;7.828;2023-05-10T09:31:26;17.10;99.90
7998;DHT22;4044;49.814;7.828;2023-05-10T09:34:08;17.60;99.90
7998;DHT22;4044;49.814;7.828;2023-05-10T09:36:33;18.20;99.90
7998;DHT22;4044;49.814;7.828;2023-05-10T09:38:59;18.50;99.50
7998;DHT22;4044;49.814;7.828;2023-05-10T09:41:25;18.20;97.70
7998;DHT22;4044;49.814;7.828;2023-05-10T09:43:56;17.80;98.10
7998;DHT22;4044;49.814;7.828;2023-05-10T09:46:21;17.40;98.20
7998;DHT22;4044;49.814;7.828;2023-05-10T09:48:48;16.90;99.00
7998;DHT22;4044;49.814;7.828;2023-05-10T09:51:21;16.60;99.90
7998;DHT22;4044;49.814;7.828;2023-05-10T09:53:47;16.50;99.60
7998;DHT22;4044;49.814;7.828;2023-05-10T09:56:32;16.70;99.90
7998;DHT22;4044;49.814;7.828;2023-05-10T09:59:05;16.80;99.80
7998;DHT22;4044;49.814;7.828;2023-05-10T10:01:31;16.90;99.20
7998;DHT22;4044;49.814;7.828;2023-05-10T10:03:57;16.90;98.50
7998;DHT22;4044;49.814;7.828;2023-05-10T10:06:23;16.70;97.70
7998;DHT22;4044;49.814;7.828;2023-05-10T10:08:50;16.90;98.80
7998;DHT22;4044;49.814;7.828;2023-05-10T10:11:16;17.30;98.30
7998;DHT22;4044;49.814;7.828;2023-05-10T10:13:42;17.60;98.10
7998;DHT22;4044;49.814;7.828;2023-05-10T10:16:08;17.90;97.00
7998;DHT22;4044;49.814;7.828;2023-05-10T10:18:35;18.20;98.30
7998;DHT22;4044;49.814;7.828;2023-05-10T10:21:07;18.40;94.00
7998;DHT22;4044;49.814;7.828;2023-05-10T10:23:34;18.60;94.60
7998;DHT22;4044;49.814;7.828;2023-05-10T10:26:01;18.70;94.00
7998;DHT22;4044;49.814;7.828;2023-05-10T10:34:05;19.00;95.60
7998;DHT22;4044;49.814;7.828;2023-05-10T10:36:32;18.90;94.00
7998;DHT22;4044;49.814;7.828;2023-05-10T10:39:00;18.40;92.60
7998;DHT22;4044;49.814;7.828;2023-05-10T10:41:40;18.40;94.70
7998;DHT22;4044;49.814;7.828;2023-05-10T10:44:23;18.70;95.00
7998;DHT22;4044;49.814;7.828;2023-05-10T10:49:48;19.00;92.50
7998;DHT22;4044;49.814;7.828;2023-05-10T10:57:26;19.60;93.50
7998;DHT22;4044;49.814;7.828;2023-05-10T11:02:55;20.00;92.90
7998;DHT22;4044;49.814;7.828;2023-05-10T11:05:38;19.80;93.10
7998;DHT22;4044;49.814;7.828;2023-05-10T11:08:27;19.50;94.20
7998;DHT22;4044;49.814;7.828;2023-05-10T11:13:30;17.80;93.70
7998;DHT22;4044;49.814;7.828;2023-05-10T11:15:57;17.20;95.30
7998;DHT22;4044;49.814;7.828;2023-05-10T11:18:29;16.90;96.10
7998;DHT22;4044;49.814;7.828;2023-05-10T11:21:00;16.60;95.50
7998;DHT22;4044;49.814;7.828;2023-05-10T11:23:49;16.50;96.40
7998;DHT22;4044;49.814;7.828;2023-05-10T11:26:15;16.40;95.80
7998;DHT22;4044;49.814;7.828;2023-05-10T11:28:47;16.40;96.50
7998;DHT22;4044;49.814;7.828;2023-05-10T11:31:17;16.40;96.40
7998;DHT22;4044;49.814;7.828;2023-05-10T11:33:47;16.50;95.80
7998;DHT22;4044;49.814;7.828;2023-05-10T11:36:15;16.70;95.80
7998;DHT22;4044;49.814;7.828;2023-05-10T11:38:41;17.00;96.30
7998;DHT22;4044;49.814;7.828;2023-05-10T11:41:11;17.10;95.20
7998;DHT22;4044;49.814;7.828;2023-05-10T11:43:38;17.30;96.30
7998;DHT22;4044;49.814;7.828;2023-05-10T11:46:06;17.50;96.50
7998;DHT22;4044;49.814;7.828;2023-05-10T11:48:31;17.70;95.60
7998;DHT22;4044;49.814;7.828;2023-05-10T11:50:57;17.90;96.30
7998;DHT22;4044;49.814;7.828;2023-05-10T11:53:32;17.90;95.10
7998;DHT22;4044;49.814;7.828;2023-05-10T11:56:06;17.80;94.30
7998;DHT22;4044;49.814;7.828;2023-05-10T11:58:32;17.90;95.80
7998;DHT22;4044;49.814;7.828;2023-05-10T12:01:02;17.80;95.00
7998;DHT22;4044;49.814;7.828;2023-05-10T12:03:28;17.80;96.10
7998;DHT22;4044;49.814;7.828;2023-05-10T12:05:55;17.90;95.80
7998;DHT22;4044;49.814;7.828;2023-05-10T12:08:28;18.00;95.70
7998;DHT22;4044;49.814;7.828;2023-05-10T12:11:04;18.20;95.90
7998;DHT22;4044;49.814;7.828;2023-05-10T12:13:31;18.10;95.70
7998;DHT22;4044;49.814;7.828;2023-05-10T12:15:59;18.10;95.40
7998;DHT22;4044;49.814;7.828;2023-05-10T12:18:25;18.10;95.80
7998;DHT22;4044;49.814;7.828;2023-05-10T12:20:54;18.00;94.20
7998;DHT22;4044;49.814;7.828;2023-05-10T12:23:28;18.00;94.60
7998;DHT22;4044;49.814;7.828;2023-05-10T12:25:53;18.00;95.90
7998;DHT22;4044;49.814;7.828;2023-05-10T12:28:19;18.00;95.70
7998;DHT22;4044;49.814;7.828;2023-05-10T12:30:45;18.00;95.30
7998;DHT22;4044;49.814;7.828;2023-05-10T12:33:12;17.90;94.50
7998;DHT22;4044;49.814;7.828;2023-05-10T12:35:50;17.70;95.30
7998;DHT22;4044;49.814;7.828;2023-05-10T12:38:33;17.70;94.50
7998;DHT22;4044;49.814;7.828;2023-05-10T12:41:03;17.80;96.10
7998;DHT22;4044;49.814;7.828;2023-05-10T12:43:29;17.90;95.90
7998;DHT22;4044;49.814;7.828;2023-05-10T12:45:55;17.80;94.60
7998;DHT22;4044;49.814;7.828;2023-05-10T12:48:21;17.80;96.50
7998;DHT22;4044;49.814;7.828;2023-05-10T12:50:47;18.00;97.70
7998;DHT22;4044;49.814;7.828;2023-05-10T12:53:16;18.10;97.50
7998;DHT22;4044;49.814;7.828;2023-05-10T12:55:42;18.40;97.00
7998;DHT22;4044;49.814;7.828;2023-05-10T12:58:08;18.60;97.00
7998;DHT22;4044;49.814;7.828;2023-05-10T13:00:33;18.90;95.70
7998;DHT22;4044;49.814;7.828;2023-05-10T13:02:59;19.10;94.60
7998;DHT22;4044;49.814;7.828;2023-05-10T13:05:24;19.30;94.70
7998;DHT22;4044;49.814;7.828;2023-05-10T13:07:50;19.40;92.20
7998;DHT22;4044;49.814;7.828;2023-05-10T13:10:16;19.80;94.10
7998;DHT22;4044;49.814;7.828;2023-05-10T13:12:41;20.10;93.20
7998;DHT22;4044;49.814;7.828;2023-05-10T13:15:07;20.30;91.40
7998;DHT22;4044;49.814;7.828;2023-05-10T13:17:33;20.40;91.00
7998;DHT22;4044;49.814;7.828;2023-05-10T13:19:58;20.50;88.90
7998;DHT22;4044;49.814;7.828;2023-05-10T13:22:24;20.50;88.40
7998;DHT22;4044;49.814;7.828;2023-05-10T13:24:49;20.70;86.00
7998;DHT22;4044;49.814;7.828;2023-05-10T13:27:15;21.30;89.30
7998;DHT22;4044;49.814;7.828;2023-05-10T13:29:40;21.20;85.10
7998;DHT22;4044;49.814;7.828;2023-05-10T13:32:06;21.60;82.70
7998;DHT22;4044;49.814;7.828;2023-05-10T13:34:31;22.30;84.20
7998;DHT22;4044;49.814;7.828;2023-05-10T13:36:57;23.70;83.40
7998;DHT22;4044;49.814;7.828;2023-05-10T13:39:23;23.70;80.10
7998;DHT22;4044;49.814;7.828;2023-05-10T13:41:48;23.90;76.90
7998;DHT22;4044;49.814;7.828;2023-05-10T13:44:14;24.40;78.70
7998;DHT22;4044;49.814;7.828;2023-05-10T13:46:41;25.00;79.80
7998;DHT22;4044;49.814;7.828;2023-05-10T13:49:08;25.00;74.30
7998;DHT22;4044;49.814;7.828;2023-05-10T13:51:34;25.20;71.30
7998;DHT22;4044;49.814;7.828;2023-05-10T13:53:59;25.50;70.00
7998;DHT22;4044;49.814;7.828;2023-05-10T13:56:25;25.40;72.30
7998;DHT22;4044;49.814;7.828;2023-05-10T13:58:50;25.40;71.10
7998;DHT22;4044;49.814;7.828;2023-05-10T14:01:16;25.10;70.30
7998;DHT22;4044;49.814;7.828;2023-05-10T14:03:42;25.40;74.60
7998;DHT22;4044;49.814;7.828;2023-05-10T14:06:08;25.60;74.60
7998;DHT22;4044;49.814;7.828;2023-05-10T14:08:34;26.10;73.20
7998;DHT22;4044;49.814;7.828;2023-05-10T14:11:00;26.50;72.80
7998;DHT22;4044;49.814;7.828;2023-05-10T14:13:26;26.30;71.00
7998;DHT22;4044;49.814;7.828;2023-05-10T14:15:53;26.40;69.50
7998;DHT22;4044;49.814;7.828;2023-05-10T14:18:19;27.20;70.00
7998;DHT22;4044;49.814;7.828;2023-05-10T14:20:44;26.50;67.60
7998;DHT22;4044;49.814;7.828;2023-05-10T14:23:10;26.70;67.70
7998;DHT22;4044;49.814;7.828;2023-05-10T14:25:35;26.80;64.90
7998;DHT22;4044;49.814;7.828;2023-05-10T14:28:01;27.30;63.00
7998;DHT22;4044;49.814;7.828;2023-05-10T14:30:27;27.60;63.70
7998;DHT22;4044;49.814;7.828;2023-05-10T14:32:52;27.80;64.20
7998;DHT22;4044;49.814;7.828;2023-05-10T14:35:19;28.90;66.70
7998;DHT22;4044;49.814;7.828;2023-05-10T14:37:45;29.90;61.50
7998;DHT22;4044;49.814;7.828;2023-05-10T14:40:11;29.80;63.00
7998;DHT22;4044;49.814;7.828;2023-05-10T14:42:37;30.30;60.40
7998;DHT22;4044;49.814;7.828;2023-05-10T14:45:03;30.50;61.90
7998;DHT22;4044;49.814;7.828;2023-05-10T14:47:29;30.80;60.90
7998;DHT22;4044;49.814;7.828;2023-05-10T14:49:54;30.30;54.10
7998;DHT22;4044;49.814;7.828;2023-05-10T14:52:20;30.30;60.00
7998;DHT22;4044;49.814;7.828;2023-05-10T14:54:45;29.90;58.30
7998;DHT22;4044;49.814;7.828;2023-05-10T14:57:11;30.10;57.10
7998;DHT22;4044;49.814;7.828;2023-05-10T14:59:37;30.30;58.70
7998;DHT22;4044;49.814;7.828;2023-05-10T15:02:02;30.40;56.60
7998;DHT22;4044;49.814;7.828;2023-05-10T15:04:29;29.70;53.60
7998;DHT22;4044;49.814;7.828;2023-05-10T15:06:55;29.70;56.30
7998;DHT22;4044;49.814;7.828;2023-05-10T15:09:24;30.40;52.90
7998;DHT22;4044;49.814;7.828;2023-05-10T15:11:50;31.20;55.00
7998;DHT22;4044;49.814;7.828;2023-05-10T15:14:15;31.60;53.40
7998;DHT22;4044;49.814;7.828;2023-05-10T15:16:41;31.50;53.70
7998;DHT22;4044;49.814;7.828;2023-05-10T15:19:06;31.30;55.40
7998;DHT22;4044;49.814;7.828;2023-05-10T15:21:32;32.40;53.90
7998;DHT22;4044;49.814;7.828;2023-05-10T15:24:04;33.10;53.20
7998;DHT22;4044;49.814;7.828;2023-05-10T15:26:30;33.60;53.50
7998;DHT22;4044;49.814;7.828;2023-05-10T15:28:56;33.60;48.20
7998;DHT22;4044;49.814;7.828;2023-05-10T15:31:21;33.70;52.90
7998;DHT22;4044;49.814;7.828;2023-05-10T15:33:47;32.80;52.30
7998;DHT22;4044;49.814;7.828;2023-05-10T15:36:13;31.10;53.10
7998;DHT22;4044;49.814;7.828;2023-05-10T15:38:38;30.10;52.80
7998;DHT22;4044;49.814;7.828;2023-05-10T15:41:04;29.70;54.10
7998;DHT22;4044;49.814;7.828;2023-05-10T15:43:29;29.50;54.00
7998;DHT22;4044;49.814;7.828;2023-05-10T15:45:55;29.10;52.90
7998;DHT22;4044;49.814;7.828;2023-05-10T15:48:20;29.70;55.40
7998;DHT22;4044;49.814;7.828;2023-05-10T15:50:46;29.70;53.70
7998;DHT22;4044;49.814;7.828;2023-05-10T15:53:11;29.40;57.80
7998;DHT22;4044;49.814;7.828;2023-05-10T15:55:37;29.40;56.40
7998;DHT22;4044;49.814;7.828;2023-05-10T15:58:02;29.60;52.70
7998;DHT22;4044;49.814;7.828;2023-05-10T16:00:28;29.80;53.20
7998;DHT22;4044;49.814;7.828;2023-05-10T16:02:54;29.70;53.60
7998;DHT22;4044;49.814;7.828;2023-05-10T16:05:20;30.10;53.60
7998;DHT22;4044;49.814;7.828;2023-05-10T16:07:46;30.00;52.20
7998;DHT22;4044;49.814;7.828;2023-05-10T16:10:11;30.50;54.60
7998;DHT22;4044;49.814;7.828;2023-05-10T16:12:38;30.80;51.40
7998;DHT22;4044;49.814;7.828;2023-05-10T16:15:04;29.90;51.20
7998;DHT22;4044;49.814;7.828;2023-05-10T16:17:29;29.00;52.90
7998;DHT22;4044;49.814;7.828;2023-05-10T16:19:55;28.70;52.60
7998;DHT22;4044;49.814;7.828;2023-05-10T16:22:20;28.30;53.90
7998;DHT22;4044;49.814;7.828;2023-05-10T16:24:46;28.10;52.20
7998;DHT22;4044;49.814;7.828;2023-05-10T16:27:12;27.90;53.40
7998;DHT22;4044;49.814;7.828;2023-05-10T16:29:38;28.10;53.70
7998;DHT22;4044;49.814;7.828;2023-05-10T16:32:03;28.50;52.90
7998;DHT22;4044;49.814;7.828;2023-05-10T16:34:29;28.70;52.30
7998;DHT22;4044;49.814;7.828;2023-05-10T16:36:55;29.40;52.60
7998;DHT22;4044;49.814;7.828;2023-05-10T16:39:20;28.90;52.50
7998;DHT22;4044;49.814;7.828;2023-05-10T16:41:46;27.50;53.70